Time;durP1;ratioP1;P1;durP2;ratioP2;P2;SDS_P1;SDS_P2;PMS_P1;PMS_P2;Temp;Humidity;BMP_temperature;BMP_pressure;BME280_temperature;BME280_humidity;BME280_pressure;Samples;Min_cycle;Max_cycle;Signal;HPM_P1;HPM_P2
2022/10/19 00:00:50;;;;;;;5.70;3.37;;;9.50;99.90;;;;;;4972903;28;20410;-72
2022/10/19 00:03:16;;;;;;;8.57;4.47;;;9.50;99.90;;;;;;4975018;28;20973;-71
2022/10/19 00:05:41;;;;;;;7.03;4.50;;;9.50;99.90;;;;;;4976393;28;20180;-71
2022/10/19 00:08:07;;;;;;;6.03;4.47;;;9.50;99.90;;;;;;4976441;28;20516;-70
2022/10/19 00:10:33;;;;;;;7.90;3.73;;;9.50;99.90;;;;;;4976596;28;20635;-70
2022/10/19 00:12:59;;;;;;;7.10;4.70;;;9.50;99.90;;;;;;4989083;28;20463;-70
2022/10/19 00:15:25;;;;;;;6.60;3.20;;;9.40;99.90;;;;;;4995285;28;20173;-70
2022/10/19 00:17:50;;;;;;;8.40;3.73;;;9.40;99.90;;;;;;4995677;28;20423;-70
2022/10/19 00:20:16;;;;;;;6.37;4.30;;;9.40;99.90;;;;;;4995622;28;20176;-70
2022/10/19 00:22:41;;;;;;;9.03;4.17;;;9.40;99.90;;;;;;4980860;28;20186;-70
2022/10/19 00:25:07;;;;;;;9.63;5.20;;;9.40;99.90;;;;;;4976488;28;20240;-71
2022/10/19 00:27:34;;;;;;;8.20;4.57;;;9.40;99.90;;;;;;4976959;28;20201;-72
2022/10/19 00:30:00;;;;;;;6.13;3.63;;;9.30;99.90;;;;;;4979757;28;20408;-70
2022/10/19 00:32:25;;;;;;;5.90;4.10;;;9.30;99.90;;;;;;4990755;28;21080;-71
2022/10/19 00:34:51;;;;;;;5.30;3.83;;;9.30;99.90;;;;;;4997798;28;20184;-71
2022/10/19 00:37:16;;;;;;;6.50;4.60;;;9.30;99.90;;;;;;4995508;28;20642;-70
2022/10/19 00:39:42;;;;;;;8.90;4.77;;;9.30;99.90;;;;;;4995437;28;20177;-70
2022/10/19 00:42:11;;;;;;;11.43;5.73;;;9.30;99.90;;;;;;4983159;28;20216;-71
2022/10/19 00:44:36;;;;;;;5.80;3.93;;;9.30;99.90;;;;;;4975610;28;20249;-72
2022/10/19 00:47:05;;;;;;;7.50;4.20;;;9.20;99.90;;;;;;4975888;28;20841;-71
2022/10/19 00:49:36;;;;;;;7.13;3.90;;;9.20;99.90;;;;;;5008765;28;20719;-71
2022/10/19 00:52:05;;;;;;;8.43;4.93;;;9.20;99.90;;;;;;4987609;28;21048;-71
2022/10/19 00:54:32;;;;;;;4.73;3.23;;;9.20;99.90;;;;;;4997249;28;20412;-71
2022/10/19 00:56:58;;;;;;;6.00;5.20;;;9.20;99.90;;;;;;4981996;28;20424;-71
2022/10/19 00:59:26;;;;;;;8.43;3.97;;;9.10;99.90;;;;;;4990616;28;20433;-71
2022/10/19 01:01:53;;;;;;;6.40;4.30;;;9.10;99.90;;;;;;4975657;28;20412;-71
2022/10/19 01:04:20;;;;;;;6.03;3.57;;;9.10;99.90;;;;;;4986101;28;20479;-70
2022/10/19 01:06:46;;;;;;;4.80;3.90;;;9.10;99.90;;;;;;4995008;28;20412;-71
2022/10/19 01:09:11;;;;;;;6.63;4.17;;;9.10;99.90;;;;;;4994902;28;20435;-71
2022/10/19 01:11:58;;;;;;;12.43;4.37;;;9.10;99.90;;;;;;4994804;28;20173;-71
2022/10/19 01:14:54;;;;;;;9.30;3.70;;;9.10;99.90;;;;;;4993469;28;20207;-69
2022/10/19 01:17:40;;;;;;;9.07;4.27;;;9.00;99.90;;;;;;4994535;28;21119;-71
2022/10/19 01:20:26;;;;;;;8.10;4.50;;;9.00;99.90;;;;;;4997244;28;20408;-71
2022/10/19 01:22:58;;;;;;;5.97;4.10;;;8.90;99.90;;;;;;4997560;28;20415;-71
2022/10/19 01:25:35;;;;;;;9.00;4.13;;;8.90;99.90;;;;;;4995527;28;20408;-71
2022/10/19 01:28:21;;;;;;;8.60;3.90;;;8.90;99.90;;;;;;4989689;28;20464;-71
2022/10/19 01:31:00;;;;;;;5.73;4.10;;;8.90;99.90;;;;;;4994583;28;20783;-71
2022/10/19 01:34:00;;;;;;;5.53;3.33;;;8.90;99.90;;;;;;4994114;28;20456;-72
2022/10/19 01:36:32;;;;;;;6.10;3.53;;;8.80;99.90;;;;;;4980119;28;20938;-72
2022/10/19 01:39:23;;;;;;;5.17;3.97;;;8.80;99.90;;;;;;4974907;28;20428;-71
2022/10/19 01:42:05;;;;;;;7.20;3.50;;;8.70;99.90;;;;;;4974920;28;20794;-71
2022/10/19 01:45:06;;;;;;;6.10;3.83;;;8.70;99.90;;;;;;4974591;28;20777;-71
2022/10/19 01:47:35;;;;;;;6.33;3.90;;;8.70;99.90;;;;;;5025002;28;20435;-71
2022/10/19 01:50:45;;;;;;;6.80;4.00;;;8.60;99.90;;;;;;4993825;28;20436;-70
2022/10/19 01:53:12;;;;;;;14.97;7.30;;;8.60;99.90;;;;;;4995663;28;20534;-71
2022/10/19 01:55:42;;;;;;;9.07;6.13;;;8.60;99.90;;;;;;4984149;28;20942;-72
2022/10/19 01:58:12;;;;;;;7.43;4.97;;;8.60;99.90;;;;;;4974440;28;20478;-70
2022/10/19 02:00:41;;;;;;;7.03;4.30;;;8.50;99.90;;;;;;4974496;28;20410;-70
2022/10/19 02:03:09;;;;;;;5.70;4.57;;;8.50;99.90;;;;;;4973297;28;20413;-71
2022/10/19 02:05:36;;;;;;;10.23;4.20;;;8.50;99.90;;;;;;4985272;28;20431;-71
2022/10/19 02:08:13;;;;;;;4.20;3.07;;;8.50;99.90;;;;;;4995825;28;20434;-71
2022/10/19 02:10:43;;;;;;;5.00;3.90;;;8.50;99.90;;;;;;4977161;28;20775;-71
2022/10/19 02:13:10;;;;;;;3.93;3.53;;;8.50;99.90;;;;;;4976555;28;20977;-71
2022/10/19 02:15:39;;;;;;;8.70;3.83;;;8.50;99.90;;;;;;4976105;28;20417;-70
2022/10/19 02:18:06;;;;;;;15.03;5.53;;;8.40;99.90;;;;;;4976190;28;20961;-71
2022/10/19 02:20:33;;;;;;;5.83;3.57;;;8.40;99.90;;;;;;4976221;28;20435;-71
2022/10/19 02:22:58;;;;;;;6.17;4.00;;;8.40;99.90;;;;;;5005897;28;20413;-70
2022/10/19 02:25:24;;;;;;;7.00;4.20;;;8.40;99.90;;;;;;4971970;28;20784;-70
2022/10/19 02:27:50;;;;;;;6.97;3.80;;;8.50;99.90;;;;;;4973662;28;20201;-70
2022/10/19 02:30:21;;;;;;;6.90;4.10;;;8.50;99.90;;;;;;4987108;28;20424;-70
2022/10/19 02:32:46;;;;;;;6.40;3.90;;;8.50;99.90;;;;;;4992870;28;20272;-71
2022/10/19 02:35:14;;;;;;;13.40;3.97;;;8.40;99.90;;;;;;4992730;28;20408;-71
2022/10/19 02:37:40;;;;;;;6.83;4.53;;;8.40;99.90;;;;;;4991515;28;20189;-70
2022/10/19 02:40:06;;;;;;;8.13;3.47;;;8.40;99.90;;;;;;4993053;28;20408;-70
2022/10/19 02:42:38;;;;;;;15.67;4.40;;;8.40;99.90;;;;;;4992900;28;20177;-71
2022/10/19 02:45:16;;;;;;;7.13;3.97;;;8.40;99.90;;;;;;4991173;28;20423;-71
2022/10/19 02:47:50;;;;;;;28.53;17.80;;;8.40;99.90;;;;;;4981354;28;20494;-71
2022/10/19 02:50:18;;;;;;;14.73;10.37;;;8.30;99.90;;;;;;4973305;28;20436;-74
2022/10/19 02:52:43;;;;;;;8.13;4.07;;;8.30;99.90;;;;;;4973266;28;20465;-71
2022/10/19 02:55:09;;;;;;;3.80;2.97;;;8.30;99.90;;;;;;4972955;28;20439;-70
2022/10/19 02:57:35;;;;;;;9.20;3.70;;;8.20;99.90;;;;;;4973571;28;20558;-70
2022/10/19 03:00:02;;;;;;;5.10;4.03;;;8.20;99.90;;;;;;5004508;28;20181;-71
2022/10/19 03:02:28;;;;;;;10.00;3.10;;;8.30;99.90;;;;;;4973229;28;20550;-71
2022/10/19 03:04:53;;;;;;;6.57;2.80;;;8.30;99.90;;;;;;4972807;28;20507;-71
2022/10/19 03:07:20;;;;;;;3.90;3.20;;;8.20;99.90;;;;;;4984528;28;20181;-73
2022/10/19 03:09:45;;;;;;;5.10;3.30;;;8.20;99.90;;;;;;4992582;28;20170;-71
2022/10/19 03:12:12;;;;;;;4.83;3.03;;;8.10;99.90;;;;;;4992368;28;20785;-71
2022/10/19 03:14:38;;;;;;;7.37;4.63;;;8.10;99.90;;;;;;4992270;28;20173;-70
2022/10/19 03:17:04;;;;;;;3.80;2.73;;;8.10;99.90;;;;;;4992152;28;20451;-70
2022/10/19 03:19:30;;;;;;;6.47;4.57;;;8.10;99.90;;;;;;4992629;28;20458;-71
2022/10/19 03:21:55;;;;;;;24.63;12.10;;;8.00;99.90;;;;;;4994522;28;20416;-70
2022/10/19 03:24:21;;;;;;;10.60;5.37;;;8.00;99.90;;;;;;4992944;28;20176;-70
2022/10/19 03:26:46;;;;;;;9.70;4.73;;;8.00;99.90;;;;;;4994302;28;20208;-71
2022/10/19 03:29:12;;;;;;;7.23;4.00;;;8.00;99.90;;;;;;4994337;28;20207;-70
2022/10/19 03:31:37;;;;;;;5.03;3.00;;;7.90;99.90;;;;;;4982505;28;20190;-70
2022/10/19 03:34:03;;;;;;;4.40;3.57;;;7.90;99.90;;;;;;4974441;28;20208;-71
2022/10/19 03:36:31;;;;;;;5.53;3.63;;;7.90;99.90;;;;;;5005721;28;20177;-70
2022/10/19 03:39:00;;;;;;;5.43;3.80;;;7.90;99.90;;;;;;4978505;28;20272;-70
2022/10/19 03:41:28;;;;;;;4.40;2.90;;;7.80;99.90;;;;;;4978372;28;20401;-70
2022/10/19 03:43:54;;;;;;;4.87;3.17;;;7.80;99.90;;;;;;4990040;28;20519;-70
2022/10/19 03:46:20;;;;;;;7.20;4.33;;;7.80;99.90;;;;;;4998121;28;20440;-70
2022/10/19 03:48:46;;;;;;;7.03;4.57;;;7.80;99.90;;;;;;4998248;28;20267;-71
2022/10/19 03:51:14;;;;;;;12.00;5.80;;;7.80;99.90;;;;;;4998180;28;20451;-70
2022/10/19 03:53:41;;;;;;;12.53;5.47;;;7.70;99.90;;;;;;4997996;28;20467;-71
2022/10/19 03:56:09;;;;;;;11.23;5.87;;;7.70;99.90;;;;;;4985792;28;20429;-71
2022/10/19 03:58:36;;;;;;;8.67;5.40;;;7.70;99.90;;;;;;4977274;28;20506;-70
2022/10/19 04:01:07;;;;;;;5.77;5.17;;;7.70;99.90;;;;;;4976403;28;20416;-72
2022/10/19 04:03:32;;;;;;;6.93;4.80;;;7.70;99.90;;;;;;4976444;28;20397;-71
2022/10/19 04:06:06;;;;;;;10.23;5.20;;;7.70;99.90;;;;;;4976137;28;20571;-71
2022/10/19 04:08:32;;;;;;;10.20;4.80;;;7.70;99.90;;;;;;4990739;28;20667;-73
2022/10/19 04:11:02;;;;;;;12.77;5.20;;;7.70;99.90;;;;;;4995750;28;20494;-71
2022/10/19 04:13:28;;;;;;;5.23;3.80;;;7.60;99.90;;;;;;4995076;28;20200;-72
2022/10/19 04:15:54;;;;;;;7.57;4.40;;;7.60;99.90;;;;;;4995108;28;20415;-72
2022/10/19 04:18:20;;;;;;;5.23;3.60;;;7.60;99.90;;;;;;4995619;28;20432;-73
2022/10/19 04:20:45;;;;;;;11.33;3.57;;;7.60;99.90;;;;;;4995000;28;20173;-70
2022/10/19 04:23:10;;;;;;;5.87;3.57;;;7.60;99.90;;;;;;4995380;28;20173;-73
2022/10/19 04:25:36;;;;;;;5.20;3.40;;;7.50;99.90;;;;;;4995077;28;20177;-71
2022/10/19 04:28:02;;;;;;;6.67;5.00;;;7.50;99.90;;;;;;4995460;28;20200;-70
2022/10/19 04:30:27;;;;;;;10.03;5.20;;;7.50;99.90;;;;;;4995627;28;20589;-71
2022/10/19 04:32:53;;;;;;;10.90;5.13;;;7.50;99.90;;;;;;4978721;28;20701;-70
2022/10/19 04:35:18;;;;;;;5.70;4.43;;;7.50;99.90;;;;;;4977061;28;20162;-71
2022/10/19 04:37:44;;;;;;;5.30;2.97;;;7.50;99.90;;;;;;4976006;28;20209;-70
2022/10/19 04:40:10;;;;;;;7.47;3.50;;;7.40;99.90;;;;;;4989348;28;20574;-71
2022/10/19 04:42:35;;;;;;;4.90;3.17;;;7.40;99.90;;;;;;4997234;28;20175;-71
2022/10/19 04:45:01;;;;;;;9.63;3.80;;;7.40;99.90;;;;;;4995425;28;20416;-71
2022/10/19 04:47:28;;;;;;;6.13;3.37;;;7.40;99.90;;;;;;4995311;28;20169;-71
2022/10/19 04:49:54;;;;;;;9.93;4.20;;;7.30;99.90;;;;;;4995075;28;20184;-72
2022/10/19 04:52:19;;;;;;;4.73;2.93;;;7.30;99.90;;;;;;4996602;28;20446;-71
2022/10/19 04:54:45;;;;;;;7.70;3.47;;;7.30;99.90;;;;;;4996750;28;20177;-71
2022/10/19 04:57:11;;;;;;;8.57;3.67;;;7.30;99.90;;;;;;4996045;28;20200;-71
2022/10/19 04:59:36;;;;;;;5.70;3.60;;;7.30;99.90;;;;;;4997719;28;20583;-71
2022/10/19 05:02:02;;;;;;;9.37;4.67;;;7.30;99.90;;;;;;4995178;28;20639;-72
2022/10/19 05:04:27;;;;;;;5.40;3.97;;;7.20;99.90;;;;;;4995243;28;20224;-71
2022/10/19 05:06:53;;;;;;;6.90;4.40;;;7.20;99.90;;;;;;4993910;28;20172;-71
2022/10/19 05:09:18;;;;;;;6.20;3.80;;;7.20;99.90;;;;;;4979190;28;20186;-71
2022/10/19 05:11:44;;;;;;;7.10;3.60;;;7.20;99.90;;;;;;4975480;28;20200;-71
2022/10/19 05:14:10;;;;;;;8.83;3.40;;;7.20;99.90;;;;;;4975313;28;20232;-71
2022/10/19 05:16:35;;;;;;;4.90;3.80;;;7.20;99.90;;;;;;4975176;28;20158;-71
2022/10/19 05:19:01;;;;;;;3.80;2.90;;;7.30;99.90;;;;;;4975229;28;20444;-71
2022/10/19 05:21:28;;;;;;;7.60;3.33;;;7.30;99.90;;;;;;4988915;28;20807;-71
2022/10/19 05:23:55;;;;;;;5.60;3.93;;;7.30;99.90;;;;;;4993449;28;20631;-69
2022/10/19 05:26:23;;;;;;;7.63;3.97;;;7.30;99.90;;;;;;4995067;28;20404;-70
2022/10/19 05:28:50;;;;;;;14.53;5.80;;;7.30;99.90;;;;;;4986906;28;20476;-69
2022/10/19 05:31:18;;;;;;;9.90;3.43;;;7.20;99.90;;;;;;4975277;28;20404;-71
2022/10/19 05:33:44;;;;;;;4.60;3.93;;;7.20;99.90;;;;;;4975350;28;20552;-70
2022/10/19 05:36:19;;;;;;;32.30;5.83;;;7.20;99.90;;;;;;4976045;28;20973;-71
2022/10/19 05:38:46;;;;;;;31.83;7.17;;;7.20;99.90;;;;;;4982595;28;20797;-71
2022/10/19 05:41:12;;;;;;;15.50;5.93;;;7.20;99.90;;;;;;4994400;28;20412;-73
2022/10/19 05:43:39;;;;;;;17.97;7.60;;;7.20;99.90;;;;;;4994321;28;20407;-73
2022/10/19 05:46:07;;;;;;;16.33;4.77;;;7.20;99.90;;;;;;4994075;28;20165;-71
2022/10/19 05:48:33;;;;;;;7.77;5.60;;;7.20;99.90;;;;;;4994136;28;20452;-72
2022/10/19 05:51:00;;;;;;;14.93;5.37;;;7.20;99.90;;;;;;4981970;28;20435;-72
2022/10/19 05:53:27;;;;;;;9.33;6.33;;;7.20;99.90;;;;;;4974664;28;20449;-73
2022/10/19 05:55:53;;;;;;;11.43;6.00;;;7.20;99.90;;;;;;4974388;28;20763;-71
2022/10/19 05:58:19;;;;;;;20.93;6.13;;;7.20;99.90;;;;;;4974552;28;20432;-71
2022/10/19 06:00:51;;;;;;;12.97;5.90;;;7.20;99.90;;;;;;4973986;28;20166;-70
2022/10/19 06:03:17;;;;;;;20.77;6.00;;;7.30;99.90;;;;;;4989309;28;20189;-71
2022/10/19 06:05:42;;;;;;;6.80;4.80;;;7.30;99.90;;;;;;4993570;28;20401;-70
2022/10/19 06:08:08;;;;;;;21.87;6.90;;;7.40;99.90;;;;;;4993879;28;20193;-71
2022/10/19 06:10:33;;;;;;;11.63;6.40;;;7.40;99.90;;;;;;4993764;28;20180;-70
2022/10/19 06:12:59;;;;;;;8.53;4.70;;;7.50;99.90;;;;;;4993779;28;20562;-70
2022/10/19 06:15:24;;;;;;;11.37;5.87;;;7.60;99.90;;;;;;4977302;28;20188;-70
2022/10/19 06:17:50;;;;;;;15.10;5.73;;;7.70;99.90;;;;;;4974226;28;20224;-70
2022/10/19 06:20:15;;;;;;;11.00;6.83;;;7.80;99.90;;;;;;4974172;28;20170;-70
2022/10/19 06:22:41;;;;;;;11.87;5.27;;;7.90;99.90;;;;;;4975146;28;20174;-70
2022/10/19 06:25:07;;;;;;;9.30;5.77;;;8.00;99.90;;;;;;4975215;28;20532;-70
2022/10/19 06:27:33;;;;;;;9.50;5.27;;;8.10;99.90;;;;;;4989682;28;20456;-71
2022/10/19 06:29:58;;;;;;;9.40;5.30;;;8.20;99.90;;;;;;4994209;28;20525;-71
2022/10/19 06:32:24;;;;;;;11.17;5.50;;;8.30;99.90;;;;;;4982205;28;20211;-71
2022/10/19 06:34:49;;;;;;;9.63;5.83;;;8.40;99.90;;;;;;4973666;28;20197;-70
2022/10/19 06:37:15;;;;;;;7.40;5.40;;;8.40;99.90;;;;;;4973964;28;20180;-71
2022/10/19 06:39:40;;;;;;;12.53;5.90;;;8.50;99.90;;;;;;4989368;28;20181;-72
2022/10/19 06:42:06;;;;;;;9.47;5.10;;;8.70;99.90;;;;;;4992973;28;20187;-71
2022/10/19 06:44:31;;;;;;;13.50;5.63;;;8.80;99.90;;;;;;4992915;28;20196;-73
2022/10/19 06:46:57;;;;;;;16.17;5.47;;;8.80;99.90;;;;;;4992465;28;20177;-72
2022/10/19 06:49:22;;;;;;;6.33;4.10;;;8.80;99.90;;;;;;4992930;28;20213;-72
2022/10/19 06:51:48;;;;;;;6.20;4.57;;;8.80;99.90;;;;;;4993978;28;20215;-71
2022/10/19 06:54:13;;;;;;;6.47;3.80;;;8.70;99.90;;;;;;4994030;28;20271;-71
2022/10/19 06:56:39;;;;;;;4.90;3.47;;;8.70;99.90;;;;;;4990107;28;20570;-71
2022/10/19 06:59:04;;;;;;;6.23;3.83;;;8.60;99.90;;;;;;4972697;28;20199;-72
2022/10/19 07:01:30;;;;;;;8.07;3.87;;;8.60;99.90;;;;;;4974307;28;20170;-71
2022/10/19 07:03:55;;;;;;;4.67;3.43;;;8.60;99.90;;;;;;4973325;28;20189;-71
2022/10/19 07:06:21;;;;;;;3.83;3.03;;;8.60;99.90;;;;;;4973331;28;20177;-71
2022/10/19 07:08:47;;;;;;;3.63;3.00;;;8.70;99.90;;;;;;4976135;28;20662;-70
2022/10/19 07:11:19;;;;;;;6.23;3.40;;;8.70;99.90;;;;;;4991263;28;20424;-71
2022/10/19 07:13:45;;;;;;;10.53;4.00;;;8.90;99.90;;;;;;4992333;28;20561;-71
2022/10/19 07:16:13;;;;;;;4.20;3.80;;;8.90;99.90;;;;;;4993821;28;20443;-71
2022/10/19 07:18:39;;;;;;;10.00;6.70;;;9.00;99.90;;;;;;4993917;28;20247;-71
2022/10/19 07:21:07;;;;;;;4.23;3.80;;;9.10;99.90;;;;;;4988124;28;20786;-71
2022/10/19 07:23:35;;;;;;;4.70;4.20;;;9.20;99.90;;;;;;4974798;28;20420;-71
2022/10/19 07:26:12;;;;;;;4.03;3.03;;;9.40;99.90;;;;;;4973999;28;20429;-71
2022/10/19 07:28:40;;;;;;;5.47;3.80;;;9.50;99.90;;;;;;4975814;28;20416;-74
2022/10/19 07:31:07;;;;;;;6.07;4.30;;;9.60;99.90;;;;;;4974988;28;20502;-73
2022/10/19 07:33:33;;;;;;;7.00;3.53;;;9.60;99.90;;;;;;4982751;28;20456;-74
2022/10/19 07:36:01;;;;;;;7.50;4.93;;;9.80;99.90;;;;;;4995230;28;20466;-74
2022/10/19 07:38:28;;;;;;;5.87;4.90;;;9.80;99.90;;;;;;4996913;28;20208;-75
2022/10/19 07:41:04;;;;;;;6.33;4.87;;;9.70;99.90;;;;;;4992918;28;20438;-72
2022/10/19 07:43:31;;;;;;;8.10;5.40;;;9.80;99.90;;;;;;4992825;28;20427;-74
2022/10/19 07:45:58;;;;;;;7.83;5.37;;;9.90;99.90;;;;;;4991527;28;20423;-71
2022/10/19 07:48:23;;;;;;;14.10;5.53;;;9.90;99.90;;;;;;4991125;28;20498;-71
2022/10/19 07:50:49;;;;;;;11.13;7.00;;;10.00;99.90;;;;;;4992443;28;20412;-71
2022/10/19 07:53:14;;;;;;;9.77;6.73;;;10.20;99.90;;;;;;4991339;28;20697;-71
2022/10/19 07:55:40;;;;;;;13.47;7.33;;;10.30;99.90;;;;;;4985061;28;20174;-71
2022/10/19 07:58:05;;;;;;;17.80;8.43;;;10.20;99.90;;;;;;4973296;28;20205;-71
2022/10/19 08:00:31;;;;;;;12.60;7.20;;;10.40;99.90;;;;;;4974505;28;20172;-71
2022/10/19 08:02:57;;;;;;;9.70;7.07;;;10.40;99.90;;;;;;4974442;28;20216;-71
2022/10/19 08:05:22;;;;;;;11.80;7.13;;;10.70;99.90;;;;;;4974507;28;20906;-71
2022/10/19 08:07:48;;;;;;;10.53;7.47;;;10.80;99.90;;;;;;4983345;28;20236;-72
2022/10/19 08:10:13;;;;;;;17.50;9.00;;;11.00;99.90;;;;;;4993815;28;20176;-70
2022/10/19 08:12:39;;;;;;;10.50;7.43;;;11.20;99.90;;;;;;4992193;28;20200;-71
2022/10/19 08:15:06;;;;;;;12.67;7.77;;;11.30;99.90;;;;;;4992052;28;20583;-72
2022/10/19 08:17:38;;;;;;;19.40;8.77;;;11.30;99.90;;;;;;4992173;28;20215;-71
2022/10/19 08:20:06;;;;;;;11.73;7.03;;;11.40;99.90;;;;;;4981604;28;20520;-73
2022/10/19 08:22:31;;;;;;;9.83;7.30;;;11.30;99.90;;;;;;4972859;28;20488;-72
2022/10/19 08:24:57;;;;;;;20.37;8.60;;;11.40;99.90;;;;;;4975961;28;20451;-72
2022/10/19 08:27:22;;;;;;;14.70;10.00;;;11.60;99.90;;;;;;4976384;28;20547;-71
2022/10/19 08:29:48;;;;;;;17.00;8.50;;;11.90;99.90;;;;;;4976322;28;20228;-72
2022/10/19 08:32:14;;;;;;;12.33;6.53;;;12.20;99.90;;;;;;4989092;28;20181;-72
2022/10/19 08:34:40;;;;;;;20.07;8.13;;;12.50;99.90;;;;;;4995372;28;20248;-72
2022/10/19 08:37:05;;;;;;;11.30;7.73;;;13.00;99.90;;;;;;4995907;28;20169;-72
2022/10/19 08:39:31;;;;;;;6.93;6.23;;;14.10;99.90;;;;;;4995678;28;20435;-71
2022/10/19 08:41:59;;;;;;;9.80;6.80;;;15.20;99.90;;;;;;4995679;28;20177;-71
2022/10/19 08:44:44;;;;;;;9.60;5.97;;;16.40;99.90;;;;;;4982199;28;20177;-72
2022/10/19 08:47:24;;;;;;;7.87;5.87;;;17.10;99.90;;;;;;4976049;28;20405;-72
2022/10/19 08:49:50;;;;;;;10.90;5.30;;;17.60;99.90;;;;;;4975776;28;20439;-71
2022/10/19 08:52:24;;;;;;;6.50;5.80;;;17.40;99.90;;;;;;4975655;28;20417;-71
2022/10/19 08:55:13;;;;;;;7.90;4.97;;;17.50;99.90;;;;;;4974214;28;20902;-71
2022/10/19 08:57:57;;;;;;;5.77;4.50;;;18.10;99.90;;;;;;4975677;28;20432;-71
2022/10/19 09:00:29;;;;;;;10.27;4.47;;;19.30;99.90;;;;;;4975823;28;20447;-73
2022/10/19 09:03:12;;;;;;;6.30;4.83;;;20.70;99.90;;;;;;4975558;28;20769;-72
2022/10/19 09:05:47;;;;;;;9.40;3.90;;;22.30;99.90;;;;;;4975307;28;20413;-72
2022/10/19 09:08:13;;;;;;;6.03;4.30;;;23.60;96.70;;;;;;4974583;28;20463;-72
2022/10/19 09:10:42;;;;;;;6.70;4.00;;;24.20;88.00;;;;;;4975461;28;20777;-69
2022/10/19 09:13:32;;;;;;;5.60;3.83;;;24.10;82.70;;;;;;4975372;28;20456;-69
2022/10/19 09:15:59;;;;;;;5.80;3.13;;;23.80;79.60;;;;;;4975002;28;20409;-70
2022/10/19 09:18:27;;;;;;;4.43;3.40;;;23.40;83.70;;;;;;4975325;28;20434;-70
2022/10/19 09:21:04;;;;;;;5.07;3.10;;;22.60;87.20;;;;;;5009605;28;20460;-70
2022/10/19 09:23:35;;;;;;;5.37;3.03;;;21.70;95.70;;;;;;4995286;28;20415;-70
2022/10/19 09:26:04;;;;;;;4.43;3.40;;;21.20;95.60;;;;;;4995432;28;20415;-70
2022/10/19 09:28:51;;;;;;;4.90;3.50;;;21.50;97.10;;;;;;4994941;28;20923;-70
2022/10/19 09:31:33;;;;;;;5.40;3.30;;;22.30;96.30;;;;;;4993660;28;20424;-70
2022/10/19 09:34:14;;;;;;;3.43;2.97;;;23.40;91.50;;;;;;4994307;28;20468;-70
2022/10/19 09:36:42;;;;;;;5.13;3.30;;;23.80;79.00;;;;;;4993847;28;20400;-70
2022/10/19 09:39:12;;;;;;;7.07;3.33;;;24.40;76.00;;;;;;4994392;28;20419;-70
2022/10/19 09:41:48;;;;;;;3.87;3.07;;;24.60;73.00;;;;;;4994354;28;20499;-71
2022/10/19 09:44:15;;;;;;;12.13;3.17;;;24.80;70.50;;;;;;4982200;28;20460;-73
2022/10/19 09:46:52;;;;;;;3.97;2.67;;;25.00;69.00;;;;;;4974861;28;20483;-70
2022/10/19 09:49:36;;;;;;;5.07;3.63;;;24.70;68.70;;;;;;4974541;28;20555;-71
2022/10/19 09:52:01;;;;;;;6.47;4.37;;;24.70;67.80;;;;;;4974793;28;20420;-71
2022/10/19 09:54:33;;;;;;;6.30;3.40;;;24.80;67.40;;;;;;4974392;28;20473;-70
2022/10/19 09:56:58;;;;;;;3.50;2.90;;;24.80;67.10;;;;;;4975029;28;20170;-70
2022/10/19 09:59:28;;;;;;;4.27;3.30;;;25.50;66.50;;;;;;4973367;28;20444;-70
2022/10/19 10:02:17;;;;;;;4.40;3.07;;;26.30;62.70;;;;;;4974536;28;20165;-70
2022/10/19 10:04:53;;;;;;;7.03;3.53;;;26.70;63.50;;;;;;4991256;28;20421;-71
2022/10/19 10:07:19;;;;;;;4.23;2.60;;;27.80;59.00;;;;;;4987987;28;20416;-71
2022/10/19 10:09:46;;;;;;;4.17;2.53;;;27.80;56.70;;;;;;4974463;28;20412;-70
2022/10/19 10:12:14;;;;;;;3.50;2.73;;;28.20;57.30;;;;;;4974485;28;20261;-70
2022/10/19 10:14:40;;;;;;;8.40;3.30;;;28.90;55.60;;;;;;4974113;28;20406;-70
2022/10/19 10:17:28;;;;;;;5.20;2.63;;;29.00;53.10;;;;;;4974312;28;20496;-71
2022/10/19 10:19:57;;;;;;;4.40;3.07;;;28.90;52.40;;;;;;4985216;28;20169;-71
2022/10/19 10:22:26;;;;;;;3.40;3.00;;;29.30;52.40;;;;;;4993734;28;20407;-71
2022/10/19 10:24:55;;;;;;;3.70;2.70;;;29.80;52.30;;;;;;4993258;28;20742;-70
2022/10/19 10:27:33;;;;;;;3.77;2.90;;;30.20;50.80;;;;;;4993453;28;20924;-71
2022/10/19 10:30:03;;;;;;;2.63;2.33;;;30.30;50.90;;;;;;4992166;28;20772;-71
2022/10/19 10:32:29;;;;;;;3.73;3.00;;;30.80;49.90;;;;;;4991760;28;20498;-70
2022/10/19 10:35:01;;;;;;;3.37;2.90;;;31.90;49.70;;;;;;4993165;28;20949;-71
2022/10/19 10:37:43;;;;;;;6.40;3.30;;;32.80;47.80;;;;;;4993077;28;20172;-71
2022/10/19 10:40:23;;;;;;;3.60;2.90;;;33.80;45.40;;;;;;4993224;28;20396;-71
2022/10/19 10:42:50;;;;;;;3.83;2.67;;;33.60;44.80;;;;;;4976463;28;20924;-70
2022/10/19 10:45:32;;;;;;;6.80;3.10;;;33.60;44.10;;;;;;4973367;28;20468;-70
2022/10/19 10:48:06;;;;;;;3.20;2.53;;;33.50;43.70;;;;;;4973556;28;20796;-71
2022/10/19 10:50:35;;;;;;;5.13;2.70;;;33.30;43.30;;;;;;4973661;28;20427;-70
2022/10/19 10:53:05;;;;;;;3.40;2.97;;;33.40;43.90;;;;;;4990834;28;20451;-69
2022/10/19 10:55:32;;;;;;;3.93;2.73;;;32.90;43.10;;;;;;4991668;28;20412;-70
2022/10/19 10:58:42;;;;;;;4.60;2.80;;;31.80;43.40;;;;;;4992903;28;20423;-70
2022/10/19 11:01:18;;;;;;;3.10;2.47;;;31.60;44.70;;;;;;4992965;28;20430;-70
2022/10/19 11:04:08;;;;;;;8.50;3.37;;;31.20;44.90;;;;;;4991832;28;20508;-70
2022/10/19 11:06:39;;;;;;;5.30;3.43;;;31.40;45.30;;;;;;4976920;28;20420;-72
2022/10/19 11:09:17;;;;;;;3.10;2.50;;;32.00;44.90;;;;;;4973381;28;20536;-72
2022/10/19 11:11:46;;;;;;;3.00;2.47;;;32.40;44.20;;;;;;4973182;28;20772;-70
2022/10/19 11:14:33;;;;;;;3.00;2.67;;;32.60;43.60;;;;;;4973087;28;20491;-71
2022/10/19 11:17:05;;;;;;;3.03;2.73;;;32.70;43.50;;;;;;4976240;28;20419;-70
2022/10/19 11:19:43;;;;;;;4.37;2.73;;;32.20;43.20;;;;;;4992495;28;20810;-70
2022/10/19 11:22:27;;;;;;;3.03;2.73;;;31.30;43.60;;;;;;4992756;28;20404;-70
2022/10/19 11:25:10;;;;;;;3.70;1.90;;;31.00;45.00;;;;;;4992427;28;20399;-70
2022/10/19 11:27:50;;;;;;;3.53;2.90;;;31.60;46.50;;;;;;4992560;28;20412;-70
2022/10/19 11:30:20;;;;;;;5.50;2.43;;;31.80;44.90;;;;;;4980054;28;20420;-70
2022/10/19 11:32:51;;;;;;;3.77;2.87;;;31.80;43.80;;;;;;4973101;28;20459;-72
2022/10/19 11:35:52;;;;;;;3.13;2.47;;;32.00;44.80;;;;;;5004195;28;20420;-70
2022/10/19 11:38:45;;;;;;;6.20;2.93;;;32.00;43.70;;;;;;4973152;28;20938;-70
2022/10/19 11:41:36;;;;;;;6.00;3.60;;;32.90;44.60;;;;;;4973237;28;20393;-70
2022/10/19 11:44:19;;;;;;;3.50;2.53;;;33.10;43.40;;;;;;4972945;28;20401;-70
2022/10/19 11:47:06;;;;;;;4.40;2.60;;;33.10;43.40;;;;;;4973103;28;20401;-70
2022/10/19 11:49:58;;;;;;;6.13;2.53;;;33.50;43.50;;;;;;4973132;28;20506;-69
2022/10/19 11:52:23;;;;;;;2.93;2.73;;;33.30;42.60;;;;;;4972914;28;20393;-70
2022/10/19 11:55:14;;;;;;;2.70;2.50;;;32.40;42.10;;;;;;4972646;28;20416;-72
2022/10/19 11:58:04;;;;;;;8.23;2.77;;;31.70;44.10;;;;;;4972832;28;20189;-70
2022/10/19 12:00:35;;;;;;;6.13;4.43;;;31.30;44.80;;;;;;5011346;28;20423;-70
2022/10/19 12:03:23;;;;;;;3.27;2.90;;;32.20;45.90;;;;;;4996214;28;20434;-69
2022/10/19 12:06:11;;;;;;;4.17;2.83;;;33.00;44.10;;;;;;4995618;28;20763;-70
2022/10/19 12:08:44;;;;;;;3.37;3.07;;;33.30;42.40;;;;;;4996030;28;20498;-70
2022/10/19 12:11:26;;;;;;;4.20;3.10;;;33.00;42.60;;;;;;4995294;28;20510;-69
2022/10/19 12:14:15;;;;;;;4.87;2.73;;;32.60;43.10;;;;;;4994654;28;20977;-70
2022/10/19 12:16:44;;;;;;;7.83;2.43;;;33.00;44.10;;;;;;4995825;28;20412;-70
2022/10/19 12:19:24;;;;;;;5.10;2.53;;;33.00;42.80;;;;;;4995754;28;20416;-70
2022/10/19 12:21:53;;;;;;;6.30;3.00;;;32.60;42.70;;;;;;4995929;28;20439;-70
2022/10/19 12:24:22;;;;;;;3.87;3.03;;;33.10;44.10;;;;;;4980848;28;20523;-70
2022/10/19 12:26:50;;;;;;;3.43;2.97;;;32.60;43.40;;;;;;4976219;28;20496;-70
2022/10/19 12:29:23;;;;;;;3.67;2.57;;;32.10;43.20;;;;;;4976161;28;20460;-70
2022/10/19 12:31:51;;;;;;;6.17;3.10;;;32.30;44.00;;;;;;4977399;28;20417;-69
2022/10/19 12:34:30;;;;;;;4.20;2.80;;;31.50;44.60;;;;;;4974497;28;20887;-70
2022/10/19 12:37:01;;;;;;;4.70;2.60;;;31.60;45.00;;;;;;4976248;28;20416;-69
2022/10/19 12:39:40;;;;;;;3.47;2.47;;;31.30;44.80;;;;;;4976075;28;20425;-69
2022/10/19 12:42:33;;;;;;;3.10;2.60;;;31.30;44.50;;;;;;4990451;28;20534;-70
2022/10/19 12:45:20;;;;;;;3.57;2.70;;;30.60;45.50;;;;;;4995216;28;20403;-70
2022/10/19 12:48:07;;;;;;;3.27;2.80;;;30.40;45.70;;;;;;4995416;28;20506;-70
2022/10/19 12:50:48;;;;;;;4.20;2.53;;;30.40;47.10;;;;;;4989474;28;20429;-70
2022/10/19 12:53:29;;;;;;;3.07;2.67;;;30.80;46.70;;;;;;4975728;28;20495;-69
2022/10/19 12:56:18;;;;;;;3.53;2.63;;;31.30;46.20;;;;;;4975515;28;20409;-70
2022/10/19 12:58:47;;;;;;;4.50;2.90;;;31.20;45.00;;;;;;4975613;28;20433;-69
2022/10/19 13:01:16;;;;;;;5.10;2.80;;;31.10;45.80;;;;;;4986143;28;20515;-69
2022/10/19 13:03:43;;;;;;;3.73;2.70;;;31.30;45.20;;;;;;4993466;28;20760;-69
2022/10/19 13:06:28;;;;;;;5.27;2.80;;;30.60;45.20;;;;;;4994811;28;20439;-69
2022/10/19 13:08:58;;;;;;;3.00;2.70;;;30.30;46.70;;;;;;4995063;28;20423;-70